Time;durP1;ratioP1;P1;durP2;ratioP2;P2;SDS_P1;SDS_P2;PMS_P1;PMS_P2;Temp;Humidity;BMP_temperature;BMP_pressure;BME280_temperature;BME280_humidity;BME280_pressure;Samples;Min_cycle;Max_cycle;Signal;HPM_P1;HPM_P2
2024/02/08 00:01:30;;;;;;;11.38;2.95;;;0.00;99.90;;;;;;4993851;28;20103;-63
2024/02/08 00:03:56;;;;;;;21.98;3.33;;;0.10;99.90;;;;;;5020280;28;20053;-63
2024/02/08 00:06:21;;;;;;;12.73;2.85;;;0.10;99.90;;;;;;5008863;28;20037;-63
2024/02/08 00:08:49;;;;;;;20.33;3.60;;;0.10;99.90;;;;;;5024128;28;20411;-63
2024/02/08 00:11:15;;;;;;;25.52;3.20;;;0.00;99.90;;;;;;5025369;28;20046;-63
2024/02/08 00:13:41;;;;;;;13.15;3.50;;;0.10;99.90;;;;;;5004046;28;20042;-62
2024/02/08 00:16:11;;;;;;;15.77;2.75;;;0.00;99.90;;;;;;5023407;28;20140;-63
2024/02/08 00:18:37;;;;;;;17.02;3.53;;;0.00;99.90;;;;;;5005141;28;20049;-63
2024/02/08 00:21:03;;;;;;;22.98;3.30;;;0.00;99.90;;;;;;5016691;28;20087;-63
2024/02/08 00:23:30;;;;;;;7.00;3.03;;;-0.10;99.90;;;;;;5023475;28;20092;-62
2024/02/08 00:25:56;;;;;;;14.98;3.83;;;-0.10;99.90;;;;;;5008625;28;20453;-62
2024/02/08 00:28:22;;;;;;;9.98;3.75;;;-0.10;99.90;;;;;;5023268;28;20045;-63
2024/02/08 00:30:47;;;;;;;17.08;3.42;;;-0.10;99.90;;;;;;5019782;28;20052;-63
2024/02/08 00:33:13;;;;;;;19.05;4.05;;;-0.10;99.90;;;;;;5022388;28;20111;-63
2024/02/08 00:35:39;;;;;;;9.75;3.00;;;-0.10;99.90;;;;;;5021304;28;20053;-63
2024/02/08 00:38:05;;;;;;;17.35;3.50;;;-0.20;99.90;;;;;;5031556;28;20502;-63
2024/02/08 00:40:30;;;;;;;18.33;3.53;;;-0.20;99.90;;;;;;5005023;28;20088;-63
2024/02/08 00:42:56;;;;;;;14.55;3.63;;;-0.20;99.90;;;;;;5022767;28;20045;-63
2024/02/08 00:45:22;;;;;;;18.40;2.95;;;-0.10;99.90;;;;;;5009739;28;20045;-63
2024/02/08 00:47:50;;;;;;;14.48;3.10;;;-0.10;99.90;;;;;;5026522;28;20049;-62
2024/02/08 00:50:16;;;;;;;19.63;3.88;;;-0.10;99.90;;;;;;5032765;28;20042;-63
2024/02/08 00:52:42;;;;;;;19.85;2.85;;;0.00;99.90;;;;;;5021760;28;20762;-63
2024/02/08 00:55:09;;;;;;;18.17;3.33;;;0.10;99.90;;;;;;5008762;28;20060;-63
2024/02/08 00:57:34;;;;;;;11.48;3.00;;;0.10;99.90;;;;;;5027989;28;20046;-62
2024/02/08 01:00:01;;;;;;;9.38;2.83;;;0.20;99.90;;;;;;5024551;28;20891;-63
2024/02/08 01:02:28;;;;;;;17.65;3.38;;;0.20;99.90;;;;;;5024292;28;20049;-62
2024/02/08 01:04:55;;;;;;;13.38;3.38;;;0.30;99.90;;;;;;5024207;28;20045;-63
2024/02/08 01:07:21;;;;;;;18.65;4.15;;;0.30;99.90;;;;;;5026960;28;20045;-63
2024/02/08 01:09:46;;;;;;;13.05;2.83;;;0.30;99.90;;;;;;5020407;28;20067;-63
2024/02/08 01:12:12;;;;;;;23.83;3.45;;;0.40;99.90;;;;;;5021667;28;20389;-63
2024/02/08 01:14:38;;;;;;;25.00;3.25;;;0.40;99.90;;;;;;4990459;28;20476;-63
2024/02/08 01:17:04;;;;;;;27.40;3.60;;;0.40;99.90;;;;;;5025723;28;20037;-63
2024/02/08 01:19:31;;;;;;;11.20;2.85;;;0.50;99.90;;;;;;5025434;28;20485;-62
2024/02/08 01:21:57;;;;;;;18.23;3.20;;;0.50;99.90;;;;;;5006208;28;20430;-63
2024/02/08 01:24:23;;;;;;;20.45;3.53;;;0.40;99.90;;;;;;5005206;28;20046;-63
2024/02/08 01:26:50;;;;;;;20.73;3.17;;;0.50;99.90;;;;;;5006173;28;20357;-63
2024/02/08 01:29:17;;;;;;;15.60;3.40;;;0.50;99.90;;;;;;5034394;28;20053;-63
2024/02/08 01:31:43;;;;;;;19.88;3.70;;;0.60;99.90;;;;;;5011585;28;20044;-63
2024/02/08 01:34:09;;;;;;;13.75;3.05;;;0.60;99.90;;;;;;5024980;28;20412;-63
2024/02/08 01:36:37;;;;;;;22.50;4.45;;;0.60;99.90;;;;;;5028237;28;20453;-63
2024/02/08 01:39:12;;;;;;;28.50;5.50;;;0.60;99.90;;;;;;4990422;28;20146;-63
2024/02/08 01:41:42;;;;;;;23.70;6.28;;;0.60;99.90;;;;;;5025498;28;20053;-63
2024/02/08 01:44:08;;;;;;;;;;;0.70;99.90;;;;;;5024140;28;20065;-63
2024/02/08 01:46:38;;;;;;;22.75;4.97;;;0.60;99.90;;;;;;5018736;28;19931;-63
2024/02/08 01:49:22;;;;;;;27.52;4.43;;;0.70;99.90;;;;;;5024075;28;20397;-63
2024/02/08 01:51:49;;;;;;;24.15;4.13;;;0.70;99.90;;;;;;5019251;28;20087;-62
2024/02/08 01:54:19;;;;;;;20.75;3.35;;;0.70;99.90;;;;;;5028020;28;20048;-63
2024/02/08 01:56:47;;;;;;;23.90;3.70;;;0.70;99.90;;;;;;5023451;28;20140;-63
2024/02/08 01:59:19;;;;;;;10.30;3.63;;;0.70;99.90;;;;;;5029075;28;20084;-63
2024/02/08 02:01:50;;;;;;;20.15;3.60;;;0.80;99.90;;;;;;5029510;28;20052;-63
2024/02/08 02:04:19;;;;;;;14.32;3.17;;;0.80;99.90;;;;;;5026749;28;20103;-63
2024/02/08 02:06:48;;;;;;;13.60;3.10;;;0.80;99.90;;;;;;5022374;28;20500;-63
2024/02/08 02:09:27;;;;;;;23.55;5.35;;;0.70;99.90;;;;;;4985423;28;20060;-63
2024/02/08 02:12:15;;;;;;;30.52;6.82;;;0.80;99.90;;;;;;5027064;28;20128;-63
2024/02/08 02:14:41;;;;;;;24.35;7.70;;;0.70;99.90;;;;;;5023464;28;20037;-63
2024/02/08 02:17:20;;;;;;;22.58;5.07;;;0.80;99.90;;;;;;5024985;28;20057;-63
2024/02/08 02:19:46;;;;;;;20.60;4.65;;;0.80;99.90;;;;;;5032877;28;20418;-63
2024/02/08 02:22:14;;;;;;;16.27;3.58;;;0.80;99.90;;;;;;5005613;28;20073;-63
2024/02/08 02:24:40;;;;;;;16.38;4.47;;;0.80;99.90;;;;;;5025970;28;20051;-63
2024/02/08 02:27:07;;;;;;;14.82;3.38;;;0.90;99.90;;;;;;5028680;28;20045;-63
2024/02/08 02:29:40;;;;;;;8.68;3.45;;;0.90;99.90;;;;;;5024717;28;20168;-63
2024/02/08 02:32:15;;;;;;;12.63;2.80;;;0.90;99.90;;;;;;5022448;28;20038;-63
2024/02/08 02:34:42;;;;;;;21.45;5.15;;;0.90;99.90;;;;;;5021281;28;20052;-63
2024/02/08 02:37:08;;;;;;;17.23;4.65;;;0.90;99.90;;;;;;5024839;28;20341;-63
2024/02/08 02:39:34;;;;;;;15.70;4.85;;;0.90;99.90;;;;;;5023021;28;20385;-63
2024/02/08 02:42:00;;;;;;;13.55;4.25;;;0.90;99.90;;;;;;5007815;28;20049;-63
2024/02/08 02:44:29;;;;;;;19.45;4.40;;;0.90;99.90;;;;;;5019942;28;20046;-63
2024/02/08 02:47:05;;;;;;;21.23;4.57;;;0.90;99.90;;;;;;5024299;28;20521;-63
2024/02/08 02:49:36;;;;;;;23.88;4.13;;;0.90;99.90;;;;;;5011875;28;20484;-63
2024/02/08 02:52:07;;;;;;;21.50;4.85;;;0.90;99.90;;;;;;5022918;28;20514;-63
2024/02/08 02:54:34;;;;;;;12.88;3.78;;;0.90;99.90;;;;;;5028607;28;20041;-63
2024/02/08 02:57:00;;;;;;;13.43;3.92;;;0.90;99.90;;;;;;4997144;28;20407;-63
2024/02/08 02:59:26;;;;;;;23.17;3.60;;;0.90;99.90;;;;;;5024663;28;20048;-63
2024/02/08 03:01:55;;;;;;;19.30;3.67;;;0.90;99.90;;;;;;5000784;28;20049;-63
2024/02/08 03:04:22;;;;;;;17.02;2.95;;;0.90;99.90;;;;;;5027181;28;20049;-63
2024/02/08 03:06:52;;;;;;;22.92;2.97;;;1.00;99.90;;;;;;5025118;28;20062;-63
2024/02/08 03:09:23;;;;;;;;;;;1.00;99.90;;;;;;5016146;28;20045;-63
2024/02/08 03:11:49;;;;;;;16.08;3.03;;;0.90;99.90;;;;;;5023733;28;19925;-63
2024/02/08 03:14:15;;;;;;;19.42;3.03;;;1.00;99.90;;;;;;5022100;28;20416;-63
2024/02/08 03:16:45;;;;;;;16.02;2.88;;;1.00;99.90;;;;;;5023467;28;20404;-63
2024/02/08 03:19:11;;;;;;;12.00;3.10;;;1.00;99.90;;;;;;5022197;28;20057;-63
2024/02/08 03:21:40;;;;;;;22.65;2.35;;;1.00;99.90;;;;;;5004336;28;20316;-63
2024/02/08 03:24:09;;;;;;;10.02;2.50;;;1.00;99.90;;;;;;5022327;28;20041;-63
2024/02/08 03:26:40;;;;;;;11.75;3.10;;;1.00;99.90;;;;;;5023428;28;20132;-63
2024/02/08 03:29:12;;;;;;;15.57;3.28;;;1.00;99.90;;;;;;5035452;28;20041;-63
2024/02/08 03:31:45;;;;;;;13.88;3.20;;;1.00;99.90;;;;;;4995757;28;20049;-63
2024/02/08 03:34:16;;;;;;;16.30;2.90;;;1.00;99.90;;;;;;5024892;28;20633;-63
2024/02/08 03:36:44;;;;;;;16.33;2.35;;;1.00;99.90;;;;;;5020688;28;20045;-63
2024/02/08 03:39:21;;;;;;;17.77;3.15;;;1.00;99.90;;;;;;5023124;28;20182;-63
2024/02/08 03:41:46;;;;;;;18.67;3.38;;;1.00;99.90;;;;;;5019607;28;20041;-63
2024/02/08 03:44:12;;;;;;;22.35;2.20;;;1.00;99.90;;;;;;5002924;28;20056;-63
2024/02/08 03:46:38;;;;;;;16.63;2.45;;;1.00;99.90;;;;;;5033695;28;20569;-63
2024/02/08 03:49:08;;;;;;;9.02;1.92;;;1.00;99.90;;;;;;5004551;28;20538;-63
2024/02/08 03:51:37;;;;;;;13.73;2.00;;;1.00;99.90;;;;;;5023181;28;20384;-63
2024/02/08 03:54:03;;;;;;;25.23;2.33;;;1.00;99.90;;;;;;5021246;28;20049;-63
2024/02/08 03:56:36;;;;;;;11.95;1.90;;;1.00;99.90;;;;;;5006906;28;20819;-63
2024/02/08 03:59:07;;;;;;;21.63;2.75;;;1.00;99.90;;;;;;5021368;28;20110;-63
2024/02/08 04:01:35;;;;;;;10.20;2.28;;;1.10;99.90;;;;;;5018105;28;20449;-64
2024/02/08 04:04:12;;;;;;;12.90;2.40;;;1.00;99.90;;;;;;4976548;28;20085;-63
2024/02/08 04:07:00;;;;;;;22.42;2.38;;;1.00;99.90;;;;;;5020534;28;20088;-63
2024/02/08 04:09:36;;;;;;;12.65;2.67;;;1.00;99.90;;;;;;5017526;28;20052;-63
2024/02/08 04:56:10;;;;;;;12.38;2.63;;;0.60;99.90;;;;;;5025504;28;20138;-63
2024/02/08 04:58:41;;;;;;;12.40;2.40;;;0.60;99.90;;;;;;5020187;28;20052;-63
2024/02/08 05:01:10;;;;;;;;;;;0.50;99.90;;;;;;5021578;28;20089;-63
2024/02/08 05:03:42;;;;;;;16.33;2.50;;;0.50;99.90;;;;;;5017039;28;20023;-63
2024/02/08 05:06:14;;;;;;;7.72;2.40;;;0.50;99.90;;;;;;5022021;28;20045;-63
2024/02/08 05:08:45;;;;;;;14.25;2.20;;;0.50;99.90;;;;;;5021035;28;20538;-63
2024/02/08 05:11:14;;;;;;;18.35;2.22;;;0.50;99.90;;;;;;5020020;28;20049;-63
2024/02/08 05:13:49;;;;;;;15.52;2.42;;;0.40;99.90;;;;;;5004848;28;20057;-63
2024/02/08 05:16:16;;;;;;;23.60;3.33;;;0.40;99.90;;;;;;5019178;28;20046;-63
2024/02/08 05:18:44;;;;;;;21.80;3.80;;;0.40;99.90;;;;;;5022692;28;20125;-63
2024/02/08 05:21:18;;;;;;;15.13;2.88;;;0.40;99.90;;;;;;5002415;28;20053;-63
2024/02/08 05:23:44;;;;;;;17.55;2.80;;;0.40;99.90;;;;;;5019955;28;20048;-63
2024/02/08 05:26:18;;;;;;;14.90;4.68;;;0.40;99.90;;;;;;5006599;28;20080;-63
2024/02/08 05:28:48;;;;;;;25.08;7.43;;;0.40;99.90;;;;;;5024178;28;20049;-63
2024/02/08 05:31:18;;;;;;;30.70;9.20;;;0.40;99.90;;;;;;5020158;28;20700;-63
2024/02/08 05:33:44;;;;;;;22.10;7.60;;;0.40;99.90;;;;;;5012756;28;20128;-63
2024/02/08 05:36:12;;;;;;;22.52;9.18;;;0.50;99.90;;;;;;5018044;28;20115;-63
2024/02/08 05:38:41;;;;;;;30.65;8.35;;;0.50;99.90;;;;;;5025439;28;20049;-63
2024/02/08 05:41:11;;;;;;;21.42;9.35;;;0.50;99.90;;;;;;5028333;28;20041;-63
2024/02/08 05:43:47;;;;;;;33.35;9.43;;;0.60;99.90;;;;;;5009997;28;20047;-63
2024/02/08 05:46:30;;;;;;;18.95;9.82;;;0.50;99.90;;;;;;5022785;28;20108;-63
2024/02/08 05:49:11;;;;;;;23.67;7.10;;;0.60;99.90;;;;;;5004966;28;20048;-63
2024/02/08 05:51:42;;;;;;;17.50;6.05;;;0.60;99.90;;;;;;5027352;28;20044;-63
2024/02/08 05:54:08;;;;;;;19.60;6.07;;;0.60;99.90;;;;;;5005123;28;20534;-64
2024/02/08 05:56:39;;;;;;;15.32;5.03;;;0.60;99.90;;;;;;5030745;28;20033;-63
2024/02/08 05:59:08;;;;;;;14.27;4.20;;;0.60;99.90;;;;;;5009423;28;20034;-63
2024/02/08 06:01:44;;;;;;;15.18;3.63;;;0.70;99.90;;;;;;5022794;28;20488;-63
2024/02/08 06:04:22;;;;;;;26.67;3.67;;;0.80;99.90;;;;;;5022746;28;20053;-63
2024/02/08 06:06:53;;;;;;;20.48;3.67;;;0.80;99.90;;;;;;5023816;28;20123;-63
2024/02/08 06:12:16;;;;;;;16.63;2.95;;;0.80;99.90;;;;;;5019190;28;20042;-63
2024/02/08 06:14:45;;;;;;;9.90;2.80;;;0.80;99.90;;;;;;5020060;28;20125;-64
2024/02/08 06:17:10;;;;;;;16.83;2.33;;;0.70;99.90;;;;;;5001633;28;20448;-63
2024/02/08 06:19:50;;;;;;;19.58;2.45;;;0.70;99.90;;;;;;5023064;28;20128;-63
2024/02/08 06:22:25;;;;;;;14.68;2.85;;;0.70;99.90;;;;;;5021360;28;20491;-63
2024/02/08 06:25:08;;;;;;;23.25;2.50;;;0.80;99.90;;;;;;5020456;28;20705;-63
2024/02/08 06:27:36;;;;;;;23.08;2.63;;;0.80;99.90;;;;;;5020138;28;20173;-64
2024/02/08 06:30:09;;;;;;;17.05;2.97;;;0.80;99.90;;;;;;5024867;28;20046;-63
2024/02/08 06:32:44;;;;;;;22.67;3.28;;;0.70;99.90;;;;;;5021632;28;20467;-63
2024/02/08 06:35:20;;;;;;;14.30;2.80;;;0.70;99.90;;;;;;5024442;28;20076;-63
2024/02/08 06:37:56;;;;;;;13.82;2.88;;;0.80;99.90;;;;;;4985350;28;20051;-63
2024/02/08 06:40:24;;;;;;;13.13;2.80;;;0.90;99.90;;;;;;5022276;28;20384;-64
2024/02/08 06:46:09;;;;;;;15.82;2.72;;;0.90;99.90;;;;;;5030347;28;20057;-63
2024/02/08 07:37:46;;;;;;;14.23;2.90;;;0.80;99.90;;;;;;5021144;28;20053;-63
2024/02/08 07:40:24;;;;;;;10.85;2.40;;;0.70;99.90;;;;;;5028678;28;20045;-63
2024/02/08 07:43:16;;;;;;;24.23;3.42;;;0.80;99.90;;;;;;5014963;28;20112;-63
2024/02/08 07:45:37;;;;;;;6.93;2.17;;;0.80;99.90;;;;;;5019394;28;20072;-64
2024/02/08 07:48:10;;;;;;;15.80;2.97;;;0.90;99.90;;;;;;5006254;28;20049;-63
2024/02/08 07:50:45;;;;;;;16.90;2.50;;;0.90;99.90;;;;;;5018402;28;20089;-63
2024/02/08 07:53:19;;;;;;;15.05;2.65;;;0.90;99.90;;;;;;5022811;28;20053;-63
2024/02/08 07:55:58;;;;;;;18.58;2.47;;;1.00;99.90;;;;;;5021420;28;20506;-63
2024/02/08 07:58:27;;;;;;;19.63;2.58;;;1.10;99.90;;;;;;5028138;28;20128;-63
2024/02/08 08:00:56;;;;;;;16.50;2.28;;;1.10;99.90;;;;;;5017383;28;20053;-64
2024/02/08 08:03:26;;;;;;;20.40;3.27;;;1.10;99.90;;;;;;5019175;28;20045;-64
2024/02/08 08:05:56;;;;;;;24.55;2.97;;;1.20;99.90;;;;;;5018546;28;20037;-63
2024/02/08 08:08:25;;;;;;;16.65;2.85;;;1.20;99.90;;;;;;5020343;28;20072;-63
2024/02/08 08:11:02;;;;;;;21.25;2.78;;;1.30;99.90;;;;;;5023500;28;20059;-63
2024/02/08 08:19:13;;;;;;;12.40;2.63;;;1.30;99.90;;;;;;4992561;28;20071;-63
2024/02/08 08:24:28;;;;;;;11.38;2.38;;;1.40;99.90;;;;;;5018501;28;20504;-63
2024/02/08 08:29:47;;;;;;;16.58;2.22;;;1.50;99.90;;;;;;5014252;28;20152;-63
2024/02/08 08:37:59;;;;;;;10.55;2.85;;;1.60;99.90;;;;;;5017072;28;20042;-63
2024/02/08 08:40:37;;;;;;;13.38;2.47;;;1.70;99.90;;;;;;4983231;28;20098;-64
2024/02/08 08:43:10;;;;;;;12.20;2.03;;;1.60;99.90;;;;;;5020802;28;20119;-64
2024/02/08 08:45:40;;;;;;;11.70;2.75;;;1.70;99.90;;;;;;5016447;28;20520;-63
2024/02/08 08:48:09;;;;;;;;;;;1.80;99.90;;;;;;5016874;28;20504;-63
2024/02/08 08:50:34;;;;;;;20.48;2.47;;;1.80;99.90;;;;;;5017791;28;19976;-63
2024/02/08 08:53:16;;;;;;;11.95;2.67;;;1.80;99.90;;;;;;5020755;28;20041;-63
2024/02/08 08:55:49;;;;;;;16.33;3.65;;;1.80;99.90;;;;;;5023037;28;20046;-63
2024/02/08 08:58:15;;;;;;;9.88;2.35;;;1.80;99.90;;;;;;5003622;28;20308;-63
2024/02/08 09:00:46;;;;;;;23.55;2.95;;;1.80;99.90;;;;;;5018713;28;20046;-63
2024/02/08 09:03:27;;;;;;;15.77;2.85;;;1.80;99.90;;;;;;5004390;28;20677;-63
2024/02/08 09:06:02;;;;;;;14.57;3.42;;;1.90;99.90;;;;;;5017494;28;20040;-63
2024/02/08 09:08:42;;;;;;;14.77;2.58;;;1.90;99.90;;;;;;5021066;28;20042;-64
2024/02/08 09:11:12;;;;;;;9.10;2.53;;;1.90;99.90;;;;;;5002137;28;20053;-63
2024/02/08 09:13:51;;;;;;;14.18;3.15;;;1.90;99.90;;;;;;5015713;28;20053;-63
2024/02/08 09:21:39;;;;;;;19.98;3.22;;;2.10;99.90;;;;;;5023997;28;20052;-63
2024/02/08 09:24:17;;;;;;;16.25;3.15;;;2.20;99.90;;;;;;5026140;28;20474;-63
2024/02/08 09:26:52;;;;;;;11.55;2.90;;;2.20;99.90;;;;;;5026157;28;20402;-63
2024/02/08 09:29:25;;;;;;;24.23;3.22;;;2.30;99.90;;;;;;5010518;28;20517;-63
2024/02/08 09:31:58;;;;;;;16.08;2.83;;;2.40;99.90;;;;;;5024966;28;20091;-64
2024/02/08 09:34:37;;;;;;;15.40;2.33;;;2.40;99.90;;;;;;5023611;28;20041;-63
2024/02/08 09:37:09;;;;;;;7.72;2.50;;;2.50;99.90;;;;;;5019285;28;21564;-63
2024/02/08 09:42:37;;;;;;;17.10;3.17;;;2.50;99.90;;;;;;4999973;28;20049;-63
2024/02/08 09:45:18;;;;;;;16.38;2.20;;;2.60;99.90;;;;;;4993038;28;20523;-63
2024/02/08 09:47:51;;;;;;;14.40;3.13;;;2.70;99.90;;;;;;5017583;28;20089;-63
2024/02/08 09:50:36;;;;;;;19.58;2.67;;;2.80;99.90;;;;;;5026583;28;20053;-63
2024/02/08 09:56:25;;;;;;;15.52;3.00;;;3.00;99.90;;;;;;4998593;28;20049;-63
2024/02/08 09:59:02;;;;;;;12.98;2.90;;;3.20;99.90;;;;;;5005911;28;20448;-63
2024/02/08 10:01:42;;;;;;;11.93;2.50;;;3.20;99.90;;;;;;5026566;28;20320;-63
2024/02/08 10:04:16;;;;;;;17.65;2.78;;;3.30;99.90;;;;;;5005692;28;20051;-63
2024/02/08 10:12:29;;;;;;;10.50;2.70;;;3.50;99.90;;;;;;5008954;28;20057;-63
2024/02/08 10:14:59;;;;;;;16.95;3.28;;;3.60;99.90;;;;;;5022540;28;20512;-63
2024/02/08 10:17:25;;;;;;;;;;;3.70;99.90;;;;;;5031038;28;20083;-63
2024/02/08 10:22:53;;;;;;;15.77;3.10;;;3.70;99.90;;;;;;5013019;28;20140;-63
2024/02/08 10:28:09;;;;;;;16.30;3.13;;;3.80;99.90;;;;;;5019436;28;20293;-63
2024/02/08 10:30:38;;;;;;;9.68;3.80;;;3.90;99.90;;;;;;5000577;28;20377;-63
2024/02/08 10:33:04;;;;;;;12.48;2.38;;;4.00;99.90;;;;;;5006332;28;20045;-63
2024/02/08 10:35:39;;;;;;;10.98;2.83;;;4.00;99.90;;;;;;5025853;28;20050;-63
2024/02/08 10:38:29;;;;;;;17.08;3.53;;;4.10;99.90;;;;;;5027676;28;20354;-63
2024/02/08 10:41:02;;;;;;;13.40;2.70;;;4.20;99.90;;;;;;5028178;28;20149;-63
2024/02/08 10:43:37;;;;;;;13.20;3.13;;;4.30;99.90;;;;;;5007433;28;20522;-63
2024/02/08 10:46:03;;;;;;;13.55;3.00;;;4.30;99.90;;;;;;5024463;28;20057;-63
2024/02/08 10:48:29;;;;;;;22.30;3.47;;;4.30;99.90;;;;;;5001447;28;20045;-65
2024/02/08 10:51:02;;;;;;;16.15;3.53;;;4.40;99.90;;;;;;5004507;28;20076;-63
2024/02/08 10:53:43;;;;;;;7.47;3.15;;;4.50;99.90;;;;;;5004570;28;20081;-63
2024/02/08 10:56:17;;;;;;;18.63;2.60;;;4.50;99.90;;;;;;5010524;28;20466;-63
2024/02/08 11:04:21;;;;;;;15.50;3.42;;;4.60;99.90;;;;;;5020192;28;20417;-63
2024/02/08 11:06:55;;;;;;;18.10;3.25;;;4.60;99.90;;;;;;5016196;28;20155;-64
2024/02/08 11:09:27;;;;;;;22.85;2.97;;;4.60;99.90;;;;;;5016433;28;20382;-64
2024/02/08 11:11:59;;;;;;;12.40;3.28;;;4.60;99.90;;;;;;5021394;28;20037;-63
2024/02/08 11:14:29;;;;;;;21.85;3.30;;;4.60;99.90;;;;;;5004002;28;20411;-63
2024/02/08 11:17:00;;;;;;;19.92;3.65;;;4.50;99.90;;;;;;5018319;28;20037;-63
2024/02/08 11:19:34;;;;;;;14.57;3.30;;;4.50;99.90;;;;;;5020100;28;20049;-63
2024/02/08 11:22:24;;;;;;;9.98;2.30;;;4.50;99.90;;;;;;5020232;28;20479;-63
2024/02/08 11:24:59;;;;;;;30.38;3.33;;;4.50;99.90;;;;;;5023490;28;20057;-63
2024/02/08 11:27:28;;;;;;;15.82;3.45;;;4.60;99.90;;;;;;5020867;28;20399;-63
2024/02/08 11:29:57;;;;;;;10.10;2.53;;;4.60;99.90;;;;;;5018030;28;20045;-63
2024/02/08 11:32:24;;;;;;;20.65;3.03;;;4.60;99.90;;;;;;5018172;28;20111;-64
2024/02/08 11:34:54;;;;;;;17.35;3.10;;;4.60;99.90;;;;;;5020832;28;20106;-63
2024/02/08 11:37:28;;;;;;;;;;;4.50;99.90;;;;;;5001075;28;20059;-63
2024/02/08 11:40:01;;;;;;;13.02;2.75;;;4.50;99.90;;;;;;5018622;28;19928;-63
2024/02/08 11:42:35;;;;;;;18.98;3.28;;;4.50;99.90;;;;;;5021560;28;20523;-63
2024/02/08 11:45:08;;;;;;;16.52;3.55;;;4.50;99.90;;;;;;5022133;28;20057;-63
2024/02/08 11:47:37;;;;;;;24.40;3.83;;;4.50;99.90;;;;;;5020970;28;20108;-63
2024/02/08 11:50:04;;;;;;;20.27;2.73;;;4.50;99.90;;;;;;5001997;28;20041;-63
2024/02/08 11:52:31;;;;;;;19.15;2.70;;;4.50;99.90;;;;;;5000415;28;20049;-63
2024/02/08 11:55:09;;;;;;;23.30;3.72;;;4.50;99.90;;;;;;5025675;28;20041;-63
2024/02/08 11:57:40;;;;;;;19.73;3.33;;;4.50;99.90;;;;;;5017570;28;20647;-63
2024/02/08 12:00:17;;;;;;;14.82;3.00;;;4.60;99.90;;;;;;5006438;28;20795;-63
2024/02/08 12:02:57;;;;;;;13.55;2.55;;;4.60;99.90;;;;;;5019689;28;20103;-63
2024/02/08 12:05:27;;;;;;;15.33;3.33;;;4.60;99.90;;;;;;5003536;28;20500;-63
2024/02/08 12:08:08;;;;;;;11.90;2.55;;;4.60;99.90;;;;;;5022397;28;20124;-63
2024/02/08 12:10:35;;;;;;;14.10;3.05;;;4.60;99.90;;;;;;5018234;28;20451;-63
2024/02/08 12:13:01;;;;;;;14.57;2.58;;;4.70;99.90;;;;;;5024804;28;20045;-63
2024/02/08 12:15:28;;;;;;;19.65;2.58;;;4.70;99.90;;;;;;5004517;28;20102;-63
2024/02/08 12:18:08;;;;;;;10.40;2.50;;;4.70;99.90;;;;;;5002401;28;20081;-64
2024/02/08 12:20:36;;;;;;;23.58;3.38;;;4.60;99.90;;;;;;5023810;28;20199;-64
2024/02/08 12:23:03;;;;;;;12.85;2.67;;;4.60;99.90;;;;;;5019544;28;20060;-64
2024/02/08 12:25:42;;;;;;;11.32;2.72;;;4.60;99.90;;;;;;5025097;28;20224;-64
2024/02/08 12:28:09;;;;;;;10.80;2.28;;;4.50;99.90;;;;;;5019521;28;20065;-64
2024/02/08 12:30:39;;;;;;;14.48;2.28;;;4.50;99.90;;;;;;5023171;28;20254;-64
2024/02/08 12:33:09;;;;;;;17.02;2.53;;;4.50;99.90;;;;;;5003791;28;20041;-64
2024/02/08 12:35:40;;;;;;;13.37;2.60;;;4.40;99.90;;;;;;5018195;28;20285;-64
2024/02/08 12:38:10;;;;;;;12.57;2.70;;;4.40;99.90;;;;;;5001558;28;20480;-64
2024/02/08 12:40:38;;;;;;;16.42;2.40;;;4.40;99.90;;;;;;4976209;28;20056;-64
2024/02/08 12:43:08;;;;;;;17.75;2.08;;;4.30;99.90;;;;;;4998473;28;20050;-64
2024/02/08 12:45:34;;;;;;;14.50;2.25;;;4.30;99.90;;;;;;5001439;28;20184;-62
2024/02/08 12:48:04;;;;;;;9.93;1.95;;;4.30;99.90;;;;;;5019723;28;20045;-62
2024/02/08 12:50:35;;;;;;;10.95;2.22;;;4.30;99.90;;;;;;5029735;28;20503;-62
2024/02/08 12:53:01;;;;;;;21.83;2.97;;;4.30;99.90;;;;;;5019360;28;20041;-62
2024/02/08 12:55:30;;;;;;;14.50;2.08;;;4.40;99.90;;;;;;5003609;28;20045;-62
2024/02/08 12:58:02;;;;;;;17.05;2.20;;;4.40;99.90;;;;;;5019202;28;20053;-62
2024/02/08 13:00:33;;;;;;;12.45;5.05;;;4.40;99.90;;;;;;5028173;28;20120;-62
2024/02/08 13:03:08;;;;;;;12.63;2.33;;;4.40;99.90;;;;;;5023158;28;20095;-62
2024/02/08 13:05:38;;;;;;;18.70;2.60;;;4.40;99.90;;;;;;5024924;28;20045;-62
2024/02/08 13:08:06;;;;;;;12.30;2.47;;;4.40;99.90;;;;;;5024890;28;20120;-62
2024/02/08 13:10:33;;;;;;;19.52;2.83;;;4.40;99.90;;;;;;5008187;28;20041;-62
2024/02/08 13:12:59;;;;;;;19.13;2.50;;;4.30;99.90;;;;;;5005132;28;20128;-61
2024/02/08 13:15:31;;;;;;;15.73;2.72;;;4.30;99.90;;;;;;5026903;28;20045;-62
2024/02/08 13:17:57;;;;;;;14.70;2.75;;;4.40;99.90;;;;;;5012596;28;20041;-62
2024/02/08 13:20:23;;;;;;;26.23;2.90;;;4.40;99.90;;;;;;4968708;28;20049;-62
2024/02/08 13:22:52;;;;;;;12.98;2.42;;;4.40;99.90;;;;;;4993411;28;20411;-61
2024/02/08 13:25:22;;;;;;;11.30;2.05;;;4.30;99.90;;;;;;4994827;28;20500;-62
2024/02/08 13:27:51;;;;;;;9.75;2.53;;;4.40;99.90;;;;;;5007485;28;20129;-62
2024/02/08 13:30:17;;;;;;;14.50;2.83;;;4.30;99.90;;;;;;5019113;28;20038;-62
2024/02/08 13:32:51;;;;;;;20.50;2.35;;;4.30;99.90;;;;;;5007303;28;20045;-62
2024/02/08 13:35:23;;;;;;;3.38;1.73;;;4.30;99.90;;;;;;5023276;28;20056;-62
2024/02/08 13:38:00;;;;;;;6.55;1.70;;;4.40;99.90;;;;;;4988302;28;20053;-62
2024/02/08 13:40:26;;;;;;;7.43;1.90;;;4.40;99.90;;;;;;5025286;28;20045;-62
2024/02/08 13:42:56;;;;;;;5.80;1.13;;;4.30;99.90;;;;;;5007047;28;20045;-62
2024/02/08 13:45:27;;;;;;;3.17;1.47;;;4.20;99.90;;;;;;4995786;28;20144;-62
2024/02/08 13:47:56;;;;;;;1.00;0.55;;;4.20;99.90;;;;;;5005664;28;20040;-62
2024/02/08 13:50:23;;;;;;;2.60;0.70;;;4.10;99.90;;;;;;4999945;28;20041;-62
2024/02/08 13:52:53;;;;;;;10.93;1.25;;;4.10;97.70;;;;;;5031272;28;20034;-62
2024/02/08 13:55:19;;;;;;;4.03;1.00;;;4.00;97.90;;;;;;5026075;28;20160;-62
2024/02/08 13:57:53;;;;;;;6.00;1.45;;;4.00;97.90;;;;;;5019237;28;20038;-62
2024/02/08 14:00:26;;;;;;;5.38;0.77;;;4.00;98.90;;;;;;5016359;28;20111;-62
2024/02/08 14:02:55;;;;;;;1.75;0.63;;;4.00;99.00;;;;;;5021061;28;20557;-62
2024/02/08 14:05:23;;;;;;;2.60;0.70;;;3.90;91.30;;;;;;5021623;28;20041;-62
2024/02/08 14:07:54;;;;;;;1.10;0.60;;;3.90;93.20;;;;;;5019332;28;20108;-62
2024/02/08 14:10:27;;;;;;;12.93;1.15;;;3.80;95.60;;;;;;5022026;28;20458;-63
2024/02/08 14:13:06;;;;;;;3.88;0.70;;;3.80;96.80;;;;;;5021141;28;20037;-62
2024/02/08 14:15:33;;;;;;;8.75;0.90;;;3.80;97.50;;;;;;5022979;28;20041;-62
2024/02/08 14:18:11;;;;;;;4.55;0.90;;;3.80;99.80;;;;;;5020779;28;20101;-63
2024/02/08 14:20:43;;;;;;;5.55;0.63;;;3.80;99.90;;;;;;5017451;28;20096;-62
2024/02/08 14:23:10;;;;;;;4.72;0.65;;;3.70;99.90;;;;;;5015845;28;20555;-62
2024/02/08 14:26:00;;;;;;;3.05;0.50;;;3.70;99.90;;;;;;5020752;28;20297;-62
2024/02/08 14:28:27;;;;;;;3.13;0.60;;;3.60;99.90;;;;;;5017708;28;20037;-63
2024/02/08 14:30:52;;;;;;;4.55;0.93;;;3.50;99.90;;;;;;5003278;28;20587;-63
2024/02/08 14:33:19;;;;;;;6.25;0.90;;;3.50;99.90;;;;;;5015365;28;20163;-63
2024/02/08 14:35:47;;;;;;;4.28;0.68;;;3.40;99.90;;;;;;5025551;28;20046;-63
2024/02/08 14:38:14;;;;;;;7.10;1.10;;;3.40;99.90;;;;;;5015978;28;20064;-64
2024/02/08 14:40:42;;;;;;;5.00;1.10;;;3.40;99.90;;;;;;5016638;28;20056;-63
2024/02/08 14:43:08;;;;;;;7.97;0.75;;;3.30;99.90;;;;;;5020473;28;20107;-63
2024/02/08 14:45:38;;;;;;;9.43;1.27;;;3.30;99.90;;;;;;5019910;28;20057;-66
2024/02/08 14:48:10;;;;;;;4.57;0.80;;;3.30;99.90;;;;;;5021971;28;20049;-66
2024/02/08 14:50:49;;;;;;;2.58;0.68;;;3.30;99.90;;;;;;5003629;28;20042;-66
2024/02/08 14:53:16;;;;;;;9.55;1.25;;;3.20;99.90;;;;;;5017374;28;20610;-66
2024/02/08 14:55:45;;;;;;;8.25;1.05;;;3.20;99.90;;;;;;5022968;28;20794;-66
2024/02/08 14:58:33;;;;;;;10.55;0.82;;;3.10;99.90;;;;;;5017379;28;20075;-66
2024/02/08 15:01:08;;;;;;;5.03;1.10;;;3.10;99.90;;;;;;5005301;28;20049;-66
2024/02/08 15:03:53;;;;;;;4.50;1.10;;;3.10;99.90;;;;;;5021072;28;20048;-66
2024/02/08 15:11:57;;;;;;;4.90;1.08;;;2.60;99.90;;;;;;5024524;28;20261;-66
2024/02/08 15:14:28;;;;;;;5.78;1.05;;;2.30;99.90;;;;;;5004885;28;20570;-66
2024/02/08 15:16:55;;;;;;;1.65;0.88;;;2.20;99.90;;;;;;5005200;28;20055;-66
2024/02/08 15:19:25;;;;;;;5.10;0.90;;;2.00;99.90;;;;;;5022290;28;20504;-66
2024/02/08 15:21:52;;;;;;;;;;;1.90;99.90;;;;;;5023201;28;20146;-66
2024/02/08 15:24:19;;;;;;;7.88;1.25;;;1.80;99.90;;;;;;5002652;28;19925;-66
2024/02/08 15:26:48;;;;;;;3.40;1.00;;;1.70;99.90;;;;;;5027099;28;20033;-66
2024/02/08 15:32:04;;;;;;;4.90;0.90;;;1.60;99.90;;;;;;5023202;28;20132;-67
2024/02/08 15:34:46;;;;;;;6.70;0.88;;;1.60;99.90;;;;;;5022910;28;20079;-66
2024/02/08 15:37:13;;;;;;;6.18;0.80;;;1.50;99.90;;;;;;5003329;28;20049;-66
2024/02/08 15:42:10;;;;;;;8.77;1.75;;;1.50;99.90;;;;;;5000245;28;20041;-67
2024/02/08 15:44:58;;;;;;;6.38;1.40;;;1.50;99.90;;;;;;5014650;28;20053;-66